createdAt,value
2018-11-12T00:01:20.244Z,28.70
2018-11-12T00:03:55.250Z,35.67
2018-11-12T00:06:29.780Z,34.77
2018-11-12T00:09:05.356Z,30.17
2018-11-12T00:11:39.973Z,30.77
2018-11-12T00:14:14.932Z,31.37
2018-11-12T00:16:49.892Z,29.30
2018-11-12T00:19:24.520Z,29.33
2018-11-12T00:21:59.070Z,27.73
2018-11-12T00:24:34.350Z,29.17
2018-11-12T00:27:08.754Z,31.23
2018-11-12T00:29:43.413Z,27.80
2018-11-12T00:32:18.112Z,27.10
2018-11-12T00:34:53.084Z,26.80
2018-11-12T00:37:27.905Z,26.00
2018-11-12T00:40:03.107Z,26.57
2018-11-12T00:42:38.646Z,23.30
2018-11-12T00:45:13.193Z,25.50
2018-11-12T00:47:50.073Z,25.40
2018-11-12T00:50:24.809Z,26.50
2018-11-12T00:52:59.505Z,22.73
2018-11-12T00:55:34.133Z,25.13
2018-11-12T00:58:09.353Z,23.23
2018-11-12T01:00:44.440Z,22.20
2018-11-12T01:03:18.893Z,23.00
2018-11-12T01:05:53.792Z,21.97
2018-11-12T01:08:28.759Z,21.60
2018-11-12T01:11:03.817Z,23.87
2018-11-12T01:13:38.565Z,22.43
2018-11-12T01:16:13.258Z,21.70
2018-11-12T01:18:48.293Z,21.77
2018-11-12T01:21:22.560Z,24.77
2018-11-12T01:23:56.838Z,22.07
2018-11-12T01:26:31.137Z,21.17
2018-11-12T01:29:06.476Z,21.63
2018-11-12T01:31:41.337Z,20.63
2018-11-12T01:34:16.046Z,21.33
2018-11-12T01:36:50.817Z,20.30
2018-11-12T01:39:25.329Z,20.90
2018-11-12T01:42:00.771Z,20.30
2018-11-12T01:44:35.417Z,20.67
2018-11-12T01:47:09.845Z,22.73
2018-11-12T01:49:44.186Z,20.87
2018-11-12T01:52:18.577Z,20.77
2018-11-12T01:54:52.925Z,21.57
2018-11-12T01:57:27.756Z,21.27
2018-11-12T02:00:02.255Z,20.80
2018-11-12T02:02:37.341Z,22.20
2018-11-12T02:05:12.383Z,23.90
2018-11-12T02:07:47.384Z,23.33
2018-11-12T02:10:21.948Z,21.60
2018-11-12T02:12:56.608Z,24.63
2018-11-12T02:15:31.160Z,22.53
2018-11-12T02:18:05.836Z,23.20
2018-11-12T02:20:40.549Z,22.53
2018-11-12T02:23:15.435Z,21.97
2018-11-12T02:25:50.207Z,22.87
2018-11-12T02:28:24.566Z,22.20
2018-11-12T02:30:59.314Z,22.30
2018-11-12T02:33:33.757Z,21.33
2018-11-12T02:36:08.429Z,21.30
2018-11-12T02:38:43.134Z,22.33
2018-11-12T02:41:17.757Z,22.80
2018-11-12T02:43:52.173Z,22.10
2018-11-12T02:46:26.817Z,22.40
2018-11-12T02:49:01.321Z,20.53
2018-11-12T02:51:35.879Z,21.83
2018-11-12T02:54:10.478Z,20.77
2018-11-12T02:56:45.253Z,23.80
2018-11-12T02:59:20.109Z,20.87
2018-11-12T03:01:54.836Z,21.53
2018-11-12T03:04:29.373Z,23.10
2018-11-12T03:07:04.628Z,21.27
2018-11-12T03:09:38.984Z,21.60
2018-11-12T03:12:14.246Z,20.50
2018-11-12T03:14:48.653Z,23.17
2018-11-12T03:17:23.509Z,22.13
2018-11-12T03:19:58.056Z,22.30
2018-11-12T03:22:32.561Z,21.87
2018-11-12T03:25:08.106Z,20.73
2018-11-12T03:27:43.316Z,21.20
2018-11-12T03:30:23.840Z,21.43
2018-11-12T03:32:58.703Z,22.20
2018-11-12T03:35:33.652Z,22.57
2018-11-12T03:38:08.620Z,21.20
2018-11-12T03:40:43.240Z,23.83
2018-11-12T03:43:17.693Z,21.93
2018-11-12T03:45:52.248Z,21.00
2018-11-12T03:48:26.740Z,21.33
2018-11-12T03:51:01.369Z,22.70
2018-11-12T03:53:36.340Z,20.50
2018-11-12T03:56:11.434Z,21.13
2018-11-12T03:58:47.721Z,22.23
2018-11-12T04:01:22.369Z,23.17
2018-11-12T04:03:57.468Z,20.77
2018-11-12T04:06:31.931Z,21.23
2018-11-12T04:09:07.339Z,20.70
2018-11-12T04:11:46.616Z,20.90
2018-11-12T04:14:21.044Z,19.93
2018-11-12T04:16:56.328Z,20.73
2018-11-12T04:19:30.990Z,19.03
2018-11-12T04:22:05.755Z,19.13
2018-11-12T04:24:40.480Z,19.37
2018-11-12T04:27:14.763Z,18.33
2018-11-12T04:29:49.548Z,18.17
2018-11-12T04:32:23.993Z,18.00
2018-11-12T04:34:58.332Z,18.47
2018-11-12T04:37:32.768Z,18.77
2018-11-12T04:40:12.112Z,17.20
2018-11-12T04:42:47.445Z,17.90
2018-11-12T04:45:23.252Z,17.03
2018-11-12T04:47:58.192Z,17.10
2018-11-12T04:50:32.801Z,17.53
2018-11-12T04:53:07.220Z,16.37
2018-11-12T04:55:41.900Z,16.57
2018-11-12T04:58:16.721Z,17.13
2018-11-12T05:00:51.884Z,17.20
2018-11-12T05:03:26.205Z,16.07
2018-11-12T05:06:01.097Z,16.57
2018-11-12T05:08:35.393Z,15.67
2018-11-12T05:11:09.760Z,15.57
2018-11-12T05:13:44.421Z,16.00
2018-11-12T05:16:19.240Z,15.93
2018-11-12T05:18:53.929Z,15.97
2018-11-12T05:21:28.477Z,16.10
2018-11-12T05:24:03.084Z,15.47
2018-11-12T05:26:37.749Z,15.00
2018-11-12T05:29:12.178Z,16.47
2018-11-12T05:31:46.850Z,15.47
2018-11-12T05:34:21.201Z,15.67
2018-11-12T05:36:55.643Z,15.77
2018-11-12T05:39:30.485Z,15.20
2018-11-12T05:42:05.848Z,16.17
2018-11-12T05:44:40.532Z,16.07
2018-11-12T05:47:15.393Z,15.80
2018-11-12T05:49:50.380Z,15.53
2018-11-12T05:52:24.945Z,15.53
2018-11-12T05:54:59.678Z,14.93
2018-11-12T05:57:34.242Z,16.17
2018-11-12T06:00:10.026Z,14.90
2018-11-12T06:02:44.917Z,14.80
2018-11-12T06:05:19.482Z,13.93
2018-11-12T06:07:54.594Z,13.13
2018-11-12T06:10:30.285Z,14.63
2018-11-12T06:13:04.876Z,13.63
2018-11-12T06:15:39.400Z,14.07
2018-11-12T06:18:14.040Z,13.80
2018-11-12T06:20:48.552Z,12.87
2018-11-12T06:23:23.665Z,12.97
2018-11-12T06:25:58.613Z,13.27
2018-11-12T06:28:33.228Z,13.07
2018-11-12T06:31:08.233Z,14.20
2018-11-12T06:33:42.686Z,13.33
2018-11-12T06:36:17.535Z,13.57
2018-11-12T06:38:52.561Z,12.43
2018-11-12T06:41:27.104Z,12.80
2018-11-12T06:44:01.446Z,12.83
2018-11-12T06:46:36.125Z,12.93
2018-11-12T06:49:10.504Z,12.37
2018-11-12T06:51:45.079Z,12.77
2018-11-12T06:54:19.508Z,14.13
2018-11-12T06:56:53.954Z,14.80
2018-11-12T06:59:28.436Z,13.27
2018-11-12T07:02:02.692Z,13.03
2018-11-12T07:04:37.140Z,12.30
2018-11-12T07:07:11.606Z,12.33
2018-11-12T07:09:46.118Z,12.77
2018-11-12T07:12:20.939Z,12.30
2018-11-12T07:14:55.399Z,12.43
2018-11-12T07:17:29.700Z,12.57
2018-11-12T07:20:04.101Z,12.10
2018-11-12T07:22:38.877Z,11.80
2018-11-12T07:25:14.001Z,11.93
2018-11-12T07:27:48.752Z,11.13
2018-11-12T07:30:25.547Z,11.90
2018-11-12T07:33:00.426Z,10.30
2018-11-12T07:35:34.928Z,10.50
2018-11-12T07:38:09.388Z,10.10
2018-11-12T07:40:44.569Z,10.20
2018-11-12T07:43:18.878Z,9.63
2018-11-12T07:45:53.446Z,9.00
2018-11-12T07:48:27.952Z,9.30
2018-11-12T07:51:02.568Z,9.40
2018-11-12T07:53:37.353Z,8.33
2018-11-12T07:56:11.946Z,7.70
2018-11-12T07:58:46.705Z,7.73
2018-11-12T08:01:21.356Z,7.63
2018-11-12T08:03:55.869Z,7.50
2018-11-12T08:06:30.549Z,8.30
2018-11-12T08:09:06.979Z,7.73
2018-11-12T08:11:42.198Z,8.60
2018-11-12T08:14:17.168Z,7.70
2018-11-12T08:16:52.324Z,8.43
2018-11-12T08:19:26.990Z,8.63
2018-11-12T08:22:02.288Z,7.83
2018-11-12T08:24:36.901Z,8.37
2018-11-12T08:27:11.530Z,7.53
2018-11-12T08:29:46.217Z,7.47
2018-11-12T08:32:21.621Z,6.80
2018-11-12T08:34:56.168Z,6.50
2018-11-12T08:37:31.149Z,6.50
2018-11-12T08:40:07.923Z,6.50
2018-11-12T08:42:43.724Z,6.10
2018-11-12T08:45:18.170Z,6.13
2018-11-12T08:47:54.504Z,5.80
2018-11-12T08:50:29.272Z,5.70
2018-11-12T08:53:04.441Z,5.63
2018-11-12T08:55:39.098Z,5.33
2018-11-12T08:58:14.879Z,5.57
2018-11-12T09:00:48.765Z,4.93
2018-11-12T09:03:23.772Z,4.90
2018-11-12T09:05:58.598Z,5.03
2018-11-12T09:08:33.280Z,4.77
2018-11-12T09:11:08.580Z,4.23
2018-11-12T09:13:44.227Z,4.70
2018-11-12T09:16:19.199Z,4.33
2018-11-12T09:18:53.565Z,4.67
2018-11-12T09:21:28.188Z,4.00
2018-11-12T09:24:02.927Z,5.40
2018-11-12T09:26:38.156Z,4.73
2018-11-12T09:29:12.703Z,5.53
2018-11-12T09:31:47.962Z,4.10
2018-11-12T09:34:22.849Z,4.50
2018-11-12T09:36:57.888Z,5.23
2018-11-12T09:39:32.525Z,5.37
2018-11-12T09:42:07.537Z,4.10
2018-11-12T09:44:42.296Z,4.40
2018-11-12T09:47:16.812Z,4.20
2018-11-12T09:49:51.509Z,4.20
2018-11-12T09:52:26.255Z,4.63
2018-11-12T09:55:00.851Z,5.87
2018-11-12T09:57:35.552Z,5.53
2018-11-12T10:00:13.216Z,4.23
2018-11-12T10:02:50.136Z,4.63
2018-11-12T10:05:24.863Z,4.60
2018-11-12T10:08:04.016Z,5.57
2018-11-12T10:10:43.652Z,4.90
2018-11-12T10:13:22.212Z,5.30
2018-11-12T10:15:58.020Z,4.40
2018-11-12T10:18:29.978Z,4.60
2018-11-12T10:21:04.970Z,6.67
2018-11-12T10:23:39.386Z,4.83
2018-11-12T10:26:14.207Z,4.83
2018-11-12T10:28:48.661Z,4.87
2018-11-12T10:31:23.708Z,4.50
2018-11-12T10:33:58.189Z,5.00
2018-11-12T10:36:33.504Z,5.93
2018-11-12T10:39:09.473Z,4.73
2018-11-12T10:41:43.844Z,5.70
2018-11-12T10:44:18.289Z,5.13
2018-11-12T10:46:53.373Z,5.13
2018-11-12T10:49:27.885Z,4.57
2018-11-12T10:52:02.329Z,4.50
2018-11-12T10:54:36.850Z,5.40
2018-11-12T10:57:11.772Z,4.73
2018-11-12T10:59:46.281Z,3.90
2018-11-12T11:02:26.516Z,4.63
2018-11-12T11:05:01.758Z,6.60
2018-11-12T11:07:36.384Z,4.53
2018-11-12T11:10:10.744Z,5.03
2018-11-12T11:12:47.298Z,5.33
2018-11-12T11:15:22.322Z,3.83
2018-11-12T11:20:40.308Z,3.60
2018-11-12T11:23:14.909Z,4.60
2018-11-12T11:25:49.392Z,3.43
2018-11-12T11:28:24.374Z,4.27
2018-11-12T11:30:59.387Z,4.50
2018-11-12T11:33:34.140Z,5.73
2018-11-12T11:36:08.413Z,3.30
2018-11-12T11:38:42.977Z,3.40
2018-11-12T11:41:17.525Z,4.20
2018-11-12T11:43:51.935Z,4.13
2018-11-12T11:46:26.672Z,2.60
2018-11-12T11:49:01.218Z,3.27
2018-11-12T11:51:36.639Z,2.47
2018-11-12T11:54:11.768Z,2.87
2018-11-12T11:56:46.292Z,2.87
2018-11-12T11:59:20.849Z,2.87
2018-11-12T12:01:55.800Z,2.77
2018-11-12T12:04:30.749Z,2.53
2018-11-12T12:07:05.846Z,2.60
2018-11-12T12:09:40.669Z,2.97
2018-11-12T12:12:15.544Z,3.23
2018-11-12T12:14:50.413Z,2.60
2018-11-12T12:17:24.992Z,3.30
2018-11-12T12:19:59.659Z,2.73
2018-11-12T12:22:34.173Z,4.30
2018-11-12T12:25:10.725Z,2.40
2018-11-12T12:27:46.273Z,3.70
2018-11-12T12:30:23.323Z,2.40
2018-11-12T12:32:58.668Z,2.40
2018-11-12T12:35:33.879Z,2.30
2018-11-12T12:38:08.777Z,2.70
2018-11-12T12:40:43.469Z,2.47
2018-11-12T12:43:17.819Z,1.90
2018-11-12T12:45:52.391Z,2.13
2018-11-12T12:48:27.405Z,2.73
2018-11-12T12:51:01.887Z,2.00
2018-11-12T12:53:36.183Z,2.13
2018-11-12T12:56:10.795Z,2.27
2018-11-12T12:58:46.036Z,2.20
2018-11-12T13:01:20.583Z,2.27
2018-11-12T13:03:55.196Z,2.43
2018-11-12T13:06:29.937Z,2.97
2018-11-12T13:09:07.664Z,3.07
2018-11-12T13:11:42.271Z,2.03
2018-11-12T13:14:17.059Z,1.80
2018-11-12T13:16:52.269Z,2.10
2018-11-12T13:19:26.819Z,2.10
2018-11-12T13:22:01.539Z,3.10
2018-11-12T13:24:36.501Z,2.80
2018-11-12T13:27:11.085Z,2.70
2018-11-12T13:29:45.949Z,2.73
2018-11-12T13:32:20.545Z,3.23
2018-11-12T13:34:54.847Z,2.80
2018-11-12T13:37:29.141Z,2.33
2018-11-12T13:40:04.092Z,2.57
2018-11-12T13:42:38.598Z,3.30
2018-11-12T13:45:13.235Z,4.57
2018-11-12T13:47:48.247Z,5.40
2018-11-12T13:50:25.304Z,4.00
2018-11-12T13:53:01.294Z,3.53
2018-11-12T13:55:35.941Z,2.87
2018-11-12T13:58:10.388Z,2.50
2018-11-12T14:00:45.015Z,4.87
2018-11-12T14:03:19.528Z,9.93
2018-11-12T14:05:54.216Z,11.27
2018-11-12T14:08:29.173Z,11.90
2018-11-12T14:11:03.932Z,18.97
2018-11-12T14:13:38.900Z,12.00
2018-11-12T14:16:13.222Z,14.93
2018-11-12T14:18:48.412Z,14.23
2018-11-12T14:21:23.004Z,14.97
2018-11-12T14:23:57.852Z,14.23
2018-11-12T14:26:32.749Z,14.73
2018-11-12T14:29:08.023Z,14.87
2018-11-12T14:31:42.963Z,14.77
2018-11-12T14:34:17.497Z,15.43
2018-11-12T14:36:52.522Z,17.40
2018-11-12T14:39:26.953Z,16.53
2018-11-12T14:42:02.076Z,16.43
2018-11-12T14:44:37.309Z,16.73
2018-11-12T14:47:11.786Z,17.13
2018-11-12T14:49:46.108Z,16.00
2018-11-12T14:52:21.246Z,17.80
2018-11-12T14:54:55.985Z,17.33
2018-11-12T14:57:31.062Z,19.73
2018-11-12T15:00:15.540Z,17.87
2018-11-12T15:02:51.885Z,19.43
2018-11-12T15:05:26.832Z,19.83
2018-11-12T15:08:01.910Z,18.43
2018-11-12T15:10:36.337Z,23.63
2018-11-12T15:13:10.916Z,19.93
2018-11-12T15:15:45.375Z,19.20
2018-11-12T15:18:20.168Z,21.67
2018-11-12T15:20:54.958Z,19.67
2018-11-12T15:23:30.068Z,21.17
2018-11-12T15:26:05.388Z,20.93
2018-11-12T15:28:39.968Z,18.80
2018-11-12T15:31:14.809Z,20.00
2018-11-12T15:33:49.628Z,20.53
2018-11-12T15:36:24.189Z,21.03
2018-11-12T15:38:58.757Z,20.53
2018-11-12T15:41:33.192Z,21.03
2018-11-12T15:44:08.175Z,21.53
2018-11-12T15:46:42.829Z,21.33
2018-11-12T15:49:17.697Z,22.00
2018-11-12T15:51:52.286Z,21.57
2018-11-12T15:54:27.457Z,22.93
2018-11-12T15:57:01.981Z,22.23
2018-11-12T15:59:37.063Z,22.67
2018-11-12T16:02:11.681Z,23.03
2018-11-12T16:04:46.447Z,22.17
2018-11-12T16:07:20.968Z,23.50
2018-11-12T16:09:55.830Z,21.67
2018-11-12T16:12:30.863Z,22.63
2018-11-12T16:15:05.725Z,22.27
2018-11-12T16:17:40.543Z,24.23
2018-11-12T16:20:22.289Z,22.13
2018-11-12T16:22:58.080Z,22.50
2018-11-12T16:25:33.212Z,24.20
2018-11-12T16:28:07.876Z,25.13
2018-11-12T16:30:42.792Z,24.13
2018-11-12T16:33:17.152Z,26.23
2018-11-12T16:35:51.464Z,25.40
2018-11-12T16:38:25.985Z,26.30
2018-11-12T16:41:03.188Z,25.27
2018-11-12T16:44:45.043Z,25.47
2018-11-12T16:47:19.966Z,24.10
2018-11-12T16:49:54.516Z,23.60
2018-11-12T16:52:29.101Z,25.30
2018-11-12T16:55:04.350Z,25.70
2018-11-12T16:57:38.921Z,26.23
2018-11-12T17:00:15.281Z,26.30
2018-11-12T17:02:49.938Z,25.00
2018-11-12T17:05:25.130Z,25.53
2018-11-12T17:07:59.829Z,25.17
2018-11-12T17:10:44.102Z,24.30
2018-11-12T17:13:21.534Z,24.60
2018-11-12T17:15:57.413Z,27.80
2018-11-12T17:18:31.876Z,26.63
2018-11-12T17:21:07.624Z,29.27
2018-11-12T17:23:42.755Z,28.13
2018-11-12T17:26:17.309Z,29.93
2018-11-12T17:28:51.987Z,30.10
2018-11-12T17:31:26.492Z,27.43
2018-11-12T17:34:01.221Z,26.30
2018-11-12T17:36:35.950Z,29.70
2018-11-12T17:39:11.571Z,31.37
2018-11-12T17:41:46.015Z,27.40
2018-11-12T17:44:20.512Z,27.57
2018-11-12T17:46:54.938Z,25.77
2018-11-12T17:49:29.880Z,28.90
2018-11-12T17:52:04.453Z,27.83
2018-11-12T17:54:39.246Z,30.50
2018-11-12T17:57:13.728Z,29.37
2018-11-12T17:59:48.406Z,28.47
2018-11-12T18:02:23.072Z,27.33
2018-11-12T18:04:58.257Z,27.77
2018-11-12T18:07:33.443Z,27.77
2018-11-12T18:10:11.025Z,28.27
2018-11-12T18:12:46.181Z,28.27
2018-11-12T18:15:21.766Z,31.07
2018-11-12T18:17:56.786Z,29.50
2018-11-12T18:20:31.433Z,30.33
2018-11-12T18:23:06.471Z,31.63
2018-11-12T18:25:41.097Z,32.93
2018-11-12T18:28:15.870Z,31.40
2018-11-12T18:30:50.561Z,29.47
2018-11-12T18:33:25.021Z,31.27
2018-11-12T18:35:59.666Z,30.80
2018-11-12T18:38:34.082Z,32.37
2018-11-12T18:41:08.380Z,30.10
2018-11-12T18:43:43.144Z,31.33
2018-11-12T18:46:18.125Z,35.20
2018-11-12T18:48:53.128Z,37.60
2018-11-12T18:51:28.010Z,37.43
2018-11-12T18:54:02.390Z,37.77
2018-11-12T18:56:37.097Z,38.20
2018-11-12T18:59:11.697Z,35.47
2018-11-12T19:01:46.599Z,34.80
2018-11-12T19:04:21.133Z,33.77
2018-11-12T19:06:55.713Z,34.20
2018-11-12T19:09:30.055Z,36.00
2018-11-12T19:12:05.076Z,35.70
2018-11-12T19:14:39.441Z,34.13
2018-11-12T19:17:15.467Z,32.17
2018-11-12T19:19:49.824Z,32.17
2018-11-12T19:22:25.487Z,31.60
2018-11-12T19:24:59.812Z,36.70
2018-11-12T19:27:34.220Z,34.13
2018-11-12T19:30:11.148Z,33.33
2018-11-12T19:32:47.071Z,36.40
2018-11-12T19:35:23.225Z,34.77
2018-11-12T19:37:58.569Z,33.80
2018-11-12T19:40:33.627Z,36.37
2018-11-12T19:43:08.698Z,34.60
2018-11-12T19:45:58.222Z,37.10
2018-11-12T19:48:33.736Z,36.20
2018-11-12T19:51:09.464Z,37.30
2018-11-12T19:53:44.080Z,33.20
2018-11-12T19:56:18.485Z,37.43
2018-11-12T19:58:53.133Z,34.50
2018-11-12T20:01:28.249Z,34.03
2018-11-12T20:04:03.067Z,35.23
2018-11-12T20:06:38.053Z,33.83
2018-11-12T20:09:13.372Z,32.27
2018-11-12T20:11:47.908Z,34.30
2018-11-12T20:14:22.597Z,34.20
2018-11-12T20:16:57.144Z,32.90
2018-11-12T20:19:32.109Z,32.87
2018-11-12T20:22:06.884Z,35.47
2018-11-12T20:24:42.717Z,35.97
2018-11-12T20:27:17.073Z,37.17
2018-11-12T20:29:51.660Z,42.87
2018-11-12T20:32:26.282Z,39.53
2018-11-12T20:35:01.100Z,39.70
2018-11-12T20:37:36.577Z,39.93
2018-11-12T20:40:14.222Z,36.57
2018-11-12T20:42:49.684Z,33.87
2018-11-12T20:45:24.837Z,38.63
2018-11-12T20:48:00.224Z,35.20
2018-11-12T20:50:34.948Z,38.17
2018-11-12T20:53:09.723Z,39.30
2018-11-12T20:55:44.143Z,39.17
2018-11-12T20:58:18.825Z,30.87
2018-11-12T21:00:55.425Z,28.47
2018-11-12T21:03:30.200Z,30.37
2018-11-12T21:06:06.958Z,32.20
2018-11-12T21:08:41.356Z,26.87
2018-11-12T21:11:16.167Z,25.60
2018-11-12T21:13:50.742Z,24.13
2018-11-12T21:16:25.446Z,25.10
2018-11-12T21:18:59.797Z,25.10
2018-11-12T21:21:34.249Z,27.13
2018-11-12T21:24:09.412Z,23.27
2018-11-12T21:26:43.849Z,21.47
2018-11-12T21:29:18.289Z,22.97
2018-11-12T21:31:53.976Z,22.80
2018-11-12T21:34:28.494Z,20.40
2018-11-12T21:37:03.497Z,20.07
2018-11-12T21:39:38.209Z,22.00
2018-11-12T21:42:12.756Z,21.23
2018-11-12T21:44:47.253Z,19.93
2018-11-12T21:47:21.635Z,18.60
2018-11-12T21:49:56.097Z,18.57
2018-11-12T21:52:31.214Z,17.60
2018-11-12T21:55:05.988Z,18.00
2018-11-12T21:57:41.717Z,17.13
2018-11-12T22:00:21.956Z,18.53
2018-11-12T22:03:00.889Z,17.63
2018-11-12T22:05:35.841Z,16.10
2018-11-12T22:08:10.556Z,16.57
2018-11-12T22:10:44.862Z,16.13
2018-11-12T22:13:19.276Z,16.50
2018-11-12T22:15:54.045Z,16.27
2018-11-12T22:18:28.563Z,15.90
2018-11-12T22:21:03.738Z,15.67
2018-11-12T22:23:38.946Z,17.23
2018-11-12T22:26:13.365Z,15.73
2018-11-12T22:28:48.087Z,16.17
2018-11-12T22:31:22.877Z,15.27
2018-11-12T22:33:57.307Z,15.60
2018-11-12T22:36:31.824Z,14.90
2018-11-12T22:39:08.188Z,14.07
2018-11-12T22:41:42.467Z,15.43
2018-11-12T22:44:17.181Z,15.17
2018-11-12T22:46:51.500Z,14.33
2018-11-12T22:49:26.264Z,13.83
2018-11-12T22:52:00.756Z,13.53
2018-11-12T22:54:35.166Z,14.40
2018-11-12T22:57:09.930Z,15.07
2018-11-12T22:59:44.458Z,13.97
2018-11-12T23:02:19.820Z,13.40
2018-11-12T23:04:54.436Z,13.30
2018-11-12T23:07:29.044Z,13.67
2018-11-12T23:10:04.008Z,13.50
2018-11-12T23:12:39.259Z,14.13
2018-11-12T23:15:18.311Z,13.77
2018-11-12T23:17:52.744Z,13.63
2018-11-12T23:20:28.552Z,12.83
2018-11-12T23:23:03.155Z,12.80
2018-11-12T23:25:37.924Z,14.50
2018-11-12T23:28:12.668Z,13.40
2018-11-12T23:30:47.365Z,13.10
2018-11-12T23:33:21.807Z,12.97
2018-11-12T23:35:56.110Z,13.97
2018-11-12T23:38:31.109Z,12.00
2018-11-12T23:41:05.732Z,12.60
2018-11-12T23:43:40.227Z,12.30
2018-11-12T23:46:15.042Z,13.03
2018-11-12T23:48:49.917Z,12.27
2018-11-12T23:51:24.344Z,12.07
2018-11-12T23:53:59.105Z,12.33
2018-11-12T23:56:33.689Z,12.40
2018-11-12T23:59:08.553Z,13.10
